Time;durP1;ratioP1;P1;durP2;ratioP2;P2;SDS_P1;SDS_P2;PMS_P1;PMS_P2;Temp;Humidity;BMP_temperature;BMP_pressure;BME280_temperature;BME280_humidity;BME280_pressure;Samples;Min_cycle;Max_cycle;Signal;HPM_P1;HPM_P2
2021/06/04 00:02:09;;;;;;;9.98;1.15;;;;;;;;;;5041528;28;20060;-56
2021/06/04 00:04:35;;;;;;;4.85;1.00;;;;;;;;;;5040343;28;20040;-56
2021/06/04 00:07:02;;;;;;;8.52;1.20;;;;;;;;;;5040383;28;20426;-56
2021/06/04 00:09:28;;;;;;;4.13;0.98;;;;;;;;;;5038039;28;20559;-56
2021/06/04 00:11:57;;;;;;;5.30;1.10;;;;;;;;;;5041405;28;20124;-56
2021/06/04 00:14:25;;;;;;;9.93;1.50;;;;;;;;;;5039897;28;20116;-57
2021/06/04 00:17:02;;;;;;;5.47;1.40;;;;;;;;;;5041481;28;20140;-56
2021/06/04 00:19:29;;;;;;;14.80;1.70;;;;;;;;;;5039607;28;20119;-56
2021/06/04 00:22:03;;;;;;;19.98;2.00;;;;;;;;;;5036953;28;20454;-56
2021/06/04 00:24:29;;;;;;;4.25;1.20;;;;;;;;;;5040851;28;20043;-56
2021/06/04 00:26:55;;;;;;;5.75;1.20;;;;;;;;;;5046359;28;20041;-56
2021/06/04 00:29:21;;;;;;;54.78;3.90;;;;;;;;;;5045536;28;20051;-55
2021/06/04 00:31:51;;;;;;;13.85;1.80;;;;;;;;;;5044438;28;20054;-56
2021/06/04 00:34:18;;;;;;;7.47;1.00;;;;;;;;;;5044299;28;20079;-55
2021/06/04 00:36:44;;;;;;;4.95;0.90;;;;;;;;;;5044024;28;20057;-55
2021/06/04 00:39:10;;;;;;;7.75;1.00;;;;;;;;;;5044589;28;20029;-55
2021/06/04 00:41:45;;;;;;;6.00;1.30;;;;;;;;;;5043238;28;20489;-55
2021/06/04 00:44:11;;;;;;;6.68;1.10;;;;;;;;;;5045509;28;20076;-55
2021/06/04 00:46:39;;;;;;;8.02;1.00;;;;;;;;;;5043870;28;20045;-55
2021/06/04 00:49:05;;;;;;;8.65;1.00;;;;;;;;;;5044395;28;20612;-55
2021/06/04 00:51:36;;;;;;;4.07;0.80;;;;;;;;;;5043325;28;20454;-55
2021/06/04 00:54:03;;;;;;;16.57;1.73;;;;;;;;;;5045785;28;20112;-57
2021/06/04 00:56:30;;;;;;;28.73;2.70;;;;;;;;;;5044710;28;20678;-57
2021/06/04 00:58:57;;;;;;;14.75;1.52;;;;;;;;;;5045466;28;20488;-57
2021/06/04 01:01:29;;;;;;;16.25;1.42;;;;;;;;;;5043449;28;20032;-58
2021/06/04 01:04:00;;;;;;;37.03;3.25;;;;;;;;;;5045630;28;20044;-57
2021/06/04 01:06:31;;;;;;;10.88;1.83;;;;;;;;;;5044270;28;20033;-57
2021/06/04 01:09:02;;;;;;;22.73;2.40;;;;;;;;;;5046126;28;20048;-57
2021/06/04 01:11:46;;;;;;;21.63;2.28;;;;;;;;;;5044758;28;20076;-57
2021/06/04 01:14:24;;;;;;;17.65;2.42;;;;;;;;;;5046939;28;20060;-59
2021/06/04 01:17:11;;;;;;;35.00;4.10;;;;;;;;;;5047419;28;20647;-59
2021/06/04 01:19:46;;;;;;;13.90;2.13;;;;;;;;;;5048059;28;20061;-59
2021/06/04 01:22:19;;;;;;;13.43;2.28;;;;;;;;;;5044966;28;20041;-57
2021/06/04 01:25:03;;;;;;;14.18;2.50;;;;;;;;;;5045023;28;20152;-58
2021/06/04 01:27:32;;;;;;;20.20;2.88;;;;;;;;;;5045554;28;20045;-58
2021/06/04 01:30:13;;;;;;;9.80;1.98;;;;;;;;;;5049499;28;20095;-57
2021/06/04 01:32:39;;;;;;;13.93;2.10;;;;;;;;;;5046854;28;20060;-58
2021/06/04 01:35:08;;;;;;;16.40;2.45;;;;;;;;;;5046654;28;20090;-57
2021/06/04 01:37:34;;;;;;;7.38;1.70;;;;;;;;;;5041188;28;20044;-57
2021/06/04 01:40:03;;;;;;;17.20;2.03;;;;;;;;;;5045224;28;20097;-57
2021/06/04 01:42:31;;;;;;;10.90;2.10;;;;;;;;;;5043490;28;22086;-57
2021/06/04 01:45:03;;;;;;;12.70;2.05;;;;;;;;;;5043456;28;20033;-57
2021/06/04 01:47:37;;;;;;;17.52;2.42;;;;;;;;;;5042392;28;20029;-57
2021/06/04 01:50:07;;;;;;;9.07;1.83;;;;;;;;;;5042138;28;20068;-57
2021/06/04 01:52:35;;;;;;;11.48;2.22;;;;;;;;;;5038986;28;20033;-56
2021/06/04 01:55:08;;;;;;;14.73;2.28;;;;;;;;;;5043640;28;20033;-56
2021/06/04 01:57:40;;;;;;;10.95;2.05;;;;;;;;;;5043720;28;20052;-56
2021/06/04 02:00:11;;;;;;;10.48;2.15;;;;;;;;;;5041197;28;20044;-58
2021/06/04 02:02:37;;;;;;;6.50;1.70;;;;;;;;;;5043924;28;20045;-58
2021/06/04 02:05:05;;;;;;;15.30;2.00;;;;;;;;;;5044924;28;20045;-58
2021/06/04 02:07:33;;;;;;;13.45;2.38;;;;;;;;;;5044607;28;20033;-58
2021/06/04 02:10:09;;;;;;;11.85;2.13;;;;;;;;;;5058942;28;20593;-57
2021/06/04 02:12:35;;;;;;;10.68;2.35;;;;;;;;;;5041165;28;20077;-57
2021/06/04 02:15:21;;;;;;;9.75;2.30;;;;;;;;;;5044138;28;20147;-58
2021/06/04 02:18:07;;;;;;;15.40;1.98;;;;;;;;;;5041221;28;20049;-57
2021/06/04 02:20:41;;;;;;;17.90;2.50;;;;;;;;;;5042477;28;20036;-57
2021/06/04 02:23:13;;;;;;;17.83;2.70;;;;;;;;;;5039713;28;20044;-57
2021/06/04 02:25:45;;;;;;;7.27;1.80;;;;;;;;;;5040686;28;20048;-56
2021/06/04 02:28:29;;;;;;;14.40;2.25;;;;;;;;;;5042995;28;20040;-58
2021/06/04 02:31:05;;;;;;;14.77;2.15;;;;;;;;;;5042843;28;20122;-55
2021/06/04 02:33:34;;;;;;;7.53;1.90;;;;;;;;;;5041224;28;20050;-55
2021/06/04 02:36:07;;;;;;;11.57;2.30;;;;;;;;;;5043768;28;20095;-56
2021/06/04 02:38:36;;;;;;;14.73;2.83;;;;;;;;;;5044149;28;20064;-56
2021/06/04 02:41:05;;;;;;;15.68;2.28;;;;;;;;;;5044612;28;20041;-56
2021/06/04 02:43:36;;;;;;;8.93;2.75;;;;;;;;;;5041916;28;20123;-59
2021/06/04 02:46:04;;;;;;;14.05;1.83;;;;;;;;;;5043355;28;21599;-59
2021/06/04 02:48:30;;;;;;;14.30;2.45;;;;;;;;;;5041562;28;20044;-56
2021/06/04 02:51:24;;;;;;;12.65;2.38;;;;;;;;;;5045606;28;20808;-57
2021/06/04 02:53:52;;;;;;;15.82;2.22;;;;;;;;;;5009626;28;20052;-62
2021/06/04 02:56:31;;;;;;;14.68;2.10;;;;;;;;;;5041056;28;20033;-62
2021/06/04 02:59:04;;;;;;;10.25;2.05;;;;;;;;;;5040239;28;20084;-62
2021/06/04 03:01:31;;;;;;;16.85;2.25;;;;;;;;;;5039227;28;20032;-62
2021/06/04 03:03:59;;;;;;;13.20;2.35;;;;;;;;;;5040340;28;20528;-62
2021/06/04 03:06:28;;;;;;;11.05;2.05;;;;;;;;;;5041676;28;20033;-62
2021/06/04 03:08:54;;;;;;;13.10;1.95;;;;;;;;;;5057056;28;20750;-61
2021/06/04 03:11:21;;;;;;;18.65;2.40;;;;;;;;;;5042724;28;20037;-58
2021/06/04 03:13:47;;;;;;;12.32;2.03;;;;;;;;;;5041426;28;20914;-62
2021/06/04 03:16:19;;;;;;;11.70;2.50;;;;;;;;;;5037800;28;20105;-61
2021/06/04 03:18:47;;;;;;;13.10;2.10;;;;;;;;;;5049483;28;20044;-62
2021/06/04 03:21:42;;;;;;;8.02;2.35;;;;;;;;;;5041209;28;20045;-62
2021/06/04 03:24:14;;;;;;;11.82;2.45;;;;;;;;;;5033810;28;20120;-59
2021/06/04 03:26:40;;;;;;;18.10;2.75;;;;;;;;;;5038532;28;20151;-62
2021/06/04 03:29:08;;;;;;;17.73;3.10;;;;;;;;;;5041598;28;20044;-62
2021/06/04 03:31:36;;;;;;;15.60;2.75;;;;;;;;;;5043164;28;20028;-63
2021/06/04 03:34:05;;;;;;;16.00;2.60;;;;;;;;;;5041522;28;20056;-63
2021/06/04 03:36:32;;;;;;;13.40;2.50;;;;;;;;;;5044481;28;20059;-63
2021/06/04 03:39:03;;;;;;;15.20;3.05;;;;;;;;;;5033768;28;20037;-62
2021/06/04 03:41:32;;;;;;;11.70;2.70;;;;;;;;;;5042318;28;20306;-61
2021/06/04 03:43:58;;;;;;;13.93;3.15;;;;;;;;;;5043535;28;20043;-61
2021/06/04 03:46:44;;;;;;;19.58;6.55;;;;;;;;;;5019927;28;20132;-64
2021/06/04 03:49:11;;;;;;;21.23;4.68;;;;;;;;;;5019296;28;20041;-61
2021/06/04 03:51:38;;;;;;;15.77;4.32;;;;;;;;;;5016180;28;20128;-62
2021/06/04 03:54:05;;;;;;;13.07;4.35;;;;;;;;;;5023022;28;20079;-60
2021/06/04 03:56:32;;;;;;;11.98;4.10;;;;;;;;;;5035603;28;20060;-61
2021/06/04 03:58:58;;;;;;;12.32;2.58;;;;;;;;;;5036608;28;20515;-62
2021/06/04 04:01:32;;;;;;;11.85;2.10;;;;;;;;;;5013231;28;20088;-61
2021/06/04 04:03:58;;;;;;;11.10;2.53;;;;;;;;;;5046848;28;20120;-64
2021/06/04 04:06:24;;;;;;;11.57;1.95;;;;;;;;;;5048999;28;20029;-61
2021/06/04 04:08:50;;;;;;;14.38;2.20;;;;;;;;;;5049756;28;20067;-62
2021/06/04 04:11:16;;;;;;;13.20;2.13;;;;;;;;;;5047285;28;20040;-62
2021/06/04 04:13:42;;;;;;;9.98;1.95;;;;;;;;;;5046141;28;20048;-62
2021/06/04 04:16:08;;;;;;;9.32;1.80;;;;;;;;;;5046955;28;20456;-61
2021/06/04 04:18:34;;;;;;;13.75;2.42;;;;;;;;;;5043800;28;20203;-61
2021/06/04 04:21:02;;;;;;;9.35;2.00;;;;;;;;;;5044106;28;20781;-61
2021/06/04 04:23:30;;;;;;;12.02;1.92;;;;;;;;;;5053377;28;20133;-61
2021/06/04 04:25:56;;;;;;;9.20;1.58;;;;;;;;;;5036656;28;20039;-60
2021/06/04 04:28:24;;;;;;;12.48;2.10;;;;;;;;;;5032888;28;20477;-62
2021/06/04 04:30:50;;;;;;;11.88;2.28;;;;;;;;;;5032054;28;20208;-60
2021/06/04 04:33:16;;;;;;;11.48;1.80;;;;;;;;;;5037970;28;20076;-62
2021/06/04 04:35:42;;;;;;;12.20;2.42;;;;;;;;;;5049621;28;20585;-60
2021/06/04 04:38:09;;;;;;;14.07;2.08;;;;;;;;;;5054548;28;20053;-60
2021/06/04 04:40:37;;;;;;;8.40;2.15;;;;;;;;;;5047663;28;20492;-55
2021/06/04 04:43:04;;;;;;;13.02;1.80;;;;;;;;;;5043829;28;20040;-57
2021/06/04 04:45:31;;;;;;;11.68;1.90;;;;;;;;;;5043245;28;20828;-55
2021/06/04 04:47:57;;;;;;;13.25;1.80;;;;;;;;;;5041057;28;20036;-56
2021/06/04 04:50:25;;;;;;;15.07;2.05;;;;;;;;;;5043630;28;20133;-56
2021/06/04 04:52:51;;;;;;;8.65;2.08;;;;;;;;;;5042425;28;20037;-56
2021/06/04 04:55:17;;;;;;;12.60;2.10;;;;;;;;;;5041349;28;20048;-56
2021/06/04 04:57:43;;;;;;;11.50;1.65;;;;;;;;;;5043820;28;20095;-54
2021/06/04 05:00:11;;;;;;;7.22;1.63;;;;;;;;;;5044487;28;20036;-57
2021/06/04 05:02:37;;;;;;;13.82;2.03;;;;;;;;;;5046393;28;20043;-56
2021/06/04 05:05:04;;;;;;;6.43;2.03;;;;;;;;;;5041407;28;20040;-56
2021/06/04 05:07:30;;;;;;;12.05;1.98;;;;;;;;;;5042091;28;20065;-55
2021/06/04 05:09:57;;;;;;;9.38;1.80;;;;;;;;;;5045606;28;20041;-56
2021/06/04 05:12:24;;;;;;;9.20;1.67;;;;;;;;;;5041059;28;20483;-55
2021/06/04 05:14:50;;;;;;;11.32;2.08;;;;;;;;;;5044266;28;20036;-54
2021/06/04 05:17:16;;;;;;;8.30;1.88;;;;;;;;;;5048706;28;20052;-53
2021/06/04 05:19:43;;;;;;;16.85;2.40;;;;;;;;;;5044993;28;20088;-55
2021/06/04 05:22:09;;;;;;;12.18;2.53;;;;;;;;;;5046242;28;20043;-57
2021/06/04 05:24:35;;;;;;;13.30;2.50;;;;;;;;;;5049039;28;20041;-57
2021/06/04 05:27:01;;;;;;;5.95;1.70;;;;;;;;;;5054035;28;20033;-54
2021/06/04 05:29:27;;;;;;;13.20;2.40;;;;;;;;;;5054205;28;20048;-56
2021/06/04 05:31:53;;;;;;;9.50;1.85;;;;;;;;;;5056942;28;20025;-56
2021/06/04 05:34:19;;;;;;;11.30;2.00;;;;;;;;;;5054350;28;20065;-56
2021/06/04 05:36:45;;;;;;;7.75;1.58;;;;;;;;;;5057588;28;20498;-56
2021/06/04 05:39:15;;;;;;;9.43;1.67;;;;;;;;;;5055857;28;20051;-55
2021/06/04 05:41:42;;;;;;;12.05;2.17;;;;;;;;;;5060113;28;20041;-55
2021/06/04 05:44:12;;;;;;;9.52;1.65;;;;;;;;;;5061774;28;20053;-55
2021/06/04 05:46:38;;;;;;;15.02;1.90;;;;;;;;;;5056740;28;20056;-56
2021/06/04 05:49:04;;;;;;;10.60;1.90;;;;;;;;;;5058732;28;20025;-56
2021/06/04 05:51:30;;;;;;;12.45;1.90;;;;;;;;;;5051331;28;20417;-55
2021/06/04 05:53:56;;;;;;;9.55;1.75;;;;;;;;;;5051209;28;20037;-55
2021/06/04 05:56:23;;;;;;;8.57;2.22;;;;;;;;;;5051101;28;20033;-56
2021/06/04 05:58:50;;;;;;;11.52;1.75;;;;;;;;;;5062972;28;20838;-56
2021/06/04 06:01:18;;;;;;;15.27;3.28;;;;;;;;;;5044214;28;20033;-56
2021/06/04 06:03:44;;;;;;;14.55;1.70;;;;;;;;;;5041919;28;20114;-55
2021/06/04 06:06:11;;;;;;;10.38;1.90;;;;;;;;;;5042297;28;20045;-55
2021/06/04 06:08:36;;;;;;;9.68;2.13;;;;;;;;;;5037819;28;20044;-56
2021/06/04 06:11:04;;;;;;;12.30;2.08;;;;;;;;;;5041054;28;20058;-56
2021/06/04 06:13:30;;;;;;;12.45;1.90;;;;;;;;;;5040956;28;20033;-57
2021/06/04 06:15:56;;;;;;;10.50;2.17;;;;;;;;;;5043586;28;20047;-56
2021/06/04 06:18:22;;;;;;;11.68;1.70;;;;;;;;;;5042707;28;20058;-55
2021/06/04 06:20:48;;;;;;;9.82;1.73;;;;;;;;;;5041702;28;20056;-56
2021/06/04 06:23:15;;;;;;;11.80;1.88;;;;;;;;;;5040346;28;20021;-56
2021/06/04 06:25:44;;;;;;;9.88;2.10;;;;;;;;;;5042132;28;20045;-57
2021/06/04 06:28:11;;;;;;;9.55;2.08;;;;;;;;;;5042017;28;20082;-56
2021/06/04 06:30:37;;;;;;;13.02;2.50;;;;;;;;;;5039201;28;20047;-56
2021/06/04 06:33:03;;;;;;;11.90;2.20;;;;;;;;;;5041296;28;20037;-55
2021/06/04 06:35:33;;;;;;;7.78;1.50;;;;;;;;;;5040305;28;20528;-53
2021/06/04 06:37:59;;;;;;;16.33;2.15;;;;;;;;;;5040811;28;20085;-57
2021/06/04 06:40:25;;;;;;;13.27;1.98;;;;;;;;;;5046613;28;20040;-55
2021/06/04 06:42:51;;;;;;;9.93;2.10;;;;;;;;;;5041159;28;20223;-58
2021/06/04 06:45:17;;;;;;;11.25;2.28;;;;;;;;;;5041107;28;20041;-57
2021/06/04 06:47:43;;;;;;;13.40;2.35;;;;;;;;;;5041255;28;20037;-56
2021/06/04 06:50:10;;;;;;;10.52;2.45;;;;;;;;;;5055828;28;20532;-57
2021/06/04 06:52:36;;;;;;;17.23;2.75;;;;;;;;;;5039009;28;20037;-56
2021/06/04 06:55:02;;;;;;;11.32;2.05;;;;;;;;;;5041467;28;20037;-54
2021/06/04 06:57:28;;;;;;;13.07;2.65;;;;;;;;;;5041712;28;20114;-55
2021/06/04 06:59:54;;;;;;;11.13;2.30;;;;;;;;;;5041419;28;20037;-53
2021/06/04 07:02:20;;;;;;;10.45;2.55;;;;;;;;;;5041229;28;20037;-56
2021/06/04 07:04:46;;;;;;;12.82;2.95;;;;;;;;;;5041843;28;20036;-56
2021/06/04 07:07:12;;;;;;;18.30;2.38;;;;;;;;;;5040600;28;20037;-56
2021/06/04 07:09:38;;;;;;;13.95;2.63;;;;;;;;;;5040675;28;20037;-56
2021/06/04 07:12:04;;;;;;;15.68;2.53;;;;;;;;;;5042321;28;20048;-56
2021/06/04 07:14:33;;;;;;;12.60;2.38;;;;;;;;;;5040679;28;20047;-57
2021/06/04 07:17:01;;;;;;;20.42;2.45;;;;;;;;;;5041793;28;20074;-56
2021/06/04 07:19:28;;;;;;;10.23;2.03;;;;;;;;;;5041515;28;20051;-57
2021/06/04 07:21:53;;;;;;;11.55;2.03;;;;;;;;;;5040653;28;20060;-54
2021/06/04 07:24:22;;;;;;;10.25;2.30;;;;;;;;;;5041746;28;20187;-56
2021/06/04 07:26:50;;;;;;;12.05;2.40;;;;;;;;;;5042774;28;20128;-57
2021/06/04 07:29:16;;;;;;;18.70;2.67;;;;;;;;;;5040567;28;20068;-57
2021/06/04 07:31:44;;;;;;;12.38;2.30;;;;;;;;;;5040539;28;20181;-56
2021/06/04 07:34:12;;;;;;;12.32;2.50;;;;;;;;;;5039448;28;20494;-58
2021/06/04 07:36:40;;;;;;;11.95;2.92;;;;;;;;;;5040682;28;20037;-54
2021/06/04 07:39:09;;;;;;;11.25;2.42;;;;;;;;;;5042575;28;20548;-55
2021/06/04 07:41:35;;;;;;;11.77;2.63;;;;;;;;;;5040018;28;20065;-56
2021/06/04 07:44:02;;;;;;;14.85;2.53;;;;;;;;;;5042227;28;20040;-57
2021/06/04 07:46:28;;;;;;;13.57;2.50;;;;;;;;;;5041898;28;20562;-54
2021/06/04 07:48:54;;;;;;;10.32;2.40;;;;;;;;;;5042019;28;20063;-56
2021/06/04 07:51:23;;;;;;;7.50;2.33;;;;;;;;;;5040404;28;20103;-56
2021/06/04 07:53:48;;;;;;;11.93;2.58;;;;;;;;;;5042382;28;20041;-56
2021/06/04 07:56:16;;;;;;;13.20;2.67;;;;;;;;;;5043017;28;20086;-56
2021/06/04 07:58:42;;;;;;;11.90;2.65;;;;;;;;;;5039245;28;20190;-57
2021/06/04 08:01:08;;;;;;;8.98;2.30;;;;;;;;;;5041241;28;20083;-54
2021/06/04 08:03:35;;;;;;;10.77;2.67;;;;;;;;;;5040032;28;20041;-56
2021/06/04 08:06:02;;;;;;;12.15;2.47;;;;;;;;;;5041311;28;20032;-56
2021/06/04 08:08:28;;;;;;;12.70;2.78;;;;;;;;;;5038025;28;20501;-54
2021/06/04 08:10:54;;;;;;;14.10;2.40;;;;;;;;;;5040115;28;20386;-56
2021/06/04 08:13:20;;;;;;;13.65;2.50;;;;;;;;;;5039148;28;20044;-55
2021/06/04 08:15:57;;;;;;;13.35;2.25;;;;;;;;;;5040063;28;20063;-54
2021/06/04 08:18:24;;;;;;;16.15;2.80;;;;;;;;;;5038366;28;20398;-55
2021/06/04 08:20:50;;;;;;;15.93;2.90;;;;;;;;;;5038585;28;20505;-55
2021/06/04 08:23:19;;;;;;;10.35;2.72;;;;;;;;;;5040412;28;20051;-54
2021/06/04 08:25:47;;;;;;;18.77;2.70;;;;;;;;;;5039421;28;20062;-54
2021/06/04 08:28:13;;;;;;;16.63;2.70;;;;;;;;;;5040306;28;20045;-55
2021/06/04 08:30:39;;;;;;;11.13;2.58;;;;;;;;;;5040864;28;20052;-56
2021/06/04 08:33:05;;;;;;;14.82;2.67;;;;;;;;;;5040328;28;20059;-54
2021/06/04 08:35:32;;;;;;;16.83;2.45;;;;;;;;;;5039100;28;20052;-56
2021/06/04 08:37:58;;;;;;;12.02;2.25;;;;;;;;;;5041113;28;20080;-55
2021/06/04 08:40:29;;;;;;;9.40;3.08;;;;;;;;;;5040809;28;20468;-54
2021/06/04 08:43:09;;;;;;;21.23;3.88;;;;;;;;;;5038797;28;20124;-57
2021/06/04 08:45:45;;;;;;;13.07;2.85;;;;;;;;;;5039608;28;20041;-55
2021/06/04 08:48:29;;;;;;;8.77;2.30;;;;;;;;;;5044058;28;20089;-57
2021/06/04 08:51:04;;;;;;;10.02;2.60;;;;;;;;;;5042917;28;20056;-56
2021/06/04 08:53:44;;;;;;;9.68;2.35;;;;;;;;;;5043446;28;20045;-56
2021/06/04 08:56:14;;;;;;;12.77;2.08;;;;;;;;;;5044869;28;20065;-55
2021/06/04 08:58:46;;;;;;;8.63;2.47;;;;;;;;;;5043362;28;20132;-57
2021/06/04 09:01:27;;;;;;;10.52;2.30;;;;;;;;;;5040991;28;20056;-56
2021/06/04 09:03:56;;;;;;;11.77;2.47;;;;;;;;;;5043660;28;20036;-57
2021/06/04 09:06:31;;;;;;;11.35;2.35;;;;;;;;;;5058102;28;20037;-56
2021/06/04 09:09:05;;;;;;;18.23;2.80;;;;;;;;;;5042191;28;20131;-56
2021/06/04 09:11:40;;;;;;;14.45;2.80;;;;;;;;;;5044372;28;20041;-56
2021/06/04 09:14:07;;;;;;;12.07;1.83;;;;;;;;;;5044780;28;20044;-57
2021/06/04 09:16:37;;;;;;;10.70;2.38;;;;;;;;;;5043320;28;20048;-56
2021/06/04 09:19:09;;;;;;;15.63;2.60;;;;;;;;;;5045327;28;20333;-57
2021/06/04 09:21:36;;;;;;;15.68;2.80;;;;;;;;;;5044566;28;20504;-57
2021/06/04 09:24:03;;;;;;;24.95;3.30;;;;;;;;;;5044437;28;20048;-57
2021/06/04 09:26:30;;;;;;;30.08;4.30;;;;;;;;;;5042843;28;20167;-58
2021/06/04 09:29:05;;;;;;;31.38;3.72;;;;;;;;;;5042147;28;20104;-56
2021/06/04 09:31:54;;;;;;;33.88;3.47;;;;;;;;;;5041607;28;20041;-56
2021/06/04 09:34:33;;;;;;;32.78;3.38;;;;;;;;;;5036818;28;20127;-53
2021/06/04 09:37:11;;;;;;;34.47;4.35;;;;;;;;;;5043515;28;20041;-55
2021/06/04 09:39:40;;;;;;;33.03;3.40;;;;;;;;;;5043120;28;20033;-54
2021/06/04 09:42:14;;;;;;;31.05;3.70;;;;;;;;;;5042017;28;20045;-55
2021/06/04 09:44:58;;;;;;;19.90;2.90;;;;;;;;;;5043643;28;20033;-55
2021/06/04 09:47:31;;;;;;;13.10;2.85;;;;;;;;;;5039793;28;20037;-56
2021/06/04 09:49:57;;;;;;;14.20;2.65;;;;;;;;;;5042091;28;20112;-57
2021/06/04 09:52:23;;;;;;;11.18;2.30;;;;;;;;;;5041050;28;20041;-55
2021/06/04 09:55:09;;;;;;;9.70;2.35;;;;;;;;;;5043764;28;20531;-57
2021/06/04 09:57:36;;;;;;;12.30;2.30;;;;;;;;;;5042157;28;20049;-56
2021/06/04 10:00:15;;;;;;;7.40;1.90;;;;;;;;;;5043258;28;20033;-57
2021/06/04 10:02:41;;;;;;;8.88;1.65;;;;;;;;;;5041601;28;20045;-55
2021/06/04 10:05:10;;;;;;;11.55;1.77;;;;;;;;;;5044029;28;20048;-55
2021/06/04 10:07:36;;;;;;;9.38;1.70;;;;;;;;;;5041801;28;20699;-55
2021/06/04 10:10:09;;;;;;;11.20;1.83;;;;;;;;;;5042370;28;20106;-55
2021/06/04 10:12:36;;;;;;;10.02;1.88;;;;;;;;;;5041958;28;20101;-56
2021/06/04 10:15:13;;;;;;;7.03;1.83;;;;;;;;;;5040652;28;20039;-57
2021/06/04 10:18:03;;;;;;;10.60;1.70;;;;;;;;;;5041081;28;20056;-56
2021/06/04 10:20:32;;;;;;;11.23;2.47;;;;;;;;;;5041117;28;20064;-56
2021/06/04 10:23:04;;;;;;;7.88;1.95;;;;;;;;;;5041834;28;20485;-57
2021/06/04 10:25:39;;;;;;;10.55;2.03;;;;;;;;;;5041654;28;20040;-54
2021/06/04 10:28:04;;;;;;;7.00;2.38;;;;;;;;;;5042120;28;20041;-57
2021/06/04 10:30:30;;;;;;;9.05;1.95;;;;;;;;;;5037919;28;20451;-56
2021/06/04 10:32:59;;;;;;;8.43;2.10;;;;;;;;;;5040163;28;20520;-55
2021/06/04 10:35:48;;;;;;;9.98;2.17;;;;;;;;;;5042202;28;20048;-52
2021/06/04 10:38:16;;;;;;;10.02;2.28;;;;;;;;;;5045700;28;20095;-56
2021/06/04 10:40:49;;;;;;;6.07;2.08;;;;;;;;;;5040523;28;20047;-55
2021/06/04 10:43:14;;;;;;;;;;;;;;;;;;5031545;28;20033;-57
2021/06/04 10:45:46;;;;;;;6.35;2.42;;;;;;;;;;5040489;28;19928;-55
2021/06/04 10:48:21;;;;;;;9.88;2.17;;;;;;;;;;5040682;28;20156;-57
2021/06/04 10:50:47;;;;;;;9.57;2.42;;;;;;;;;;5041088;28;20094;-54
2021/06/04 10:53:51;;;;;;;6.85;2.30;;;;;;;;;;5042834;28;20493;-56
2021/06/04 10:56:20;;;;;;;13.32;2.70;;;;;;;;;;4998037;28;20704;-57
2021/06/04 10:58:46;;;;;;;9.98;2.40;;;;;;;;;;4995985;28;20510;-56
2021/06/04 11:01:14;;;;;;;6.72;2.38;;;;;;;;;;5017801;28;22113;-55
2021/06/04 11:03:58;;;;;;;6.68;2.10;;;;;;;;;;5042348;28;20527;-54
2021/06/04 11:06:27;;;;;;;6.43;2.20;;;;;;;;;;5040560;28;20124;-55
2021/06/04 11:09:08;;;;;;;8.20;2.40;;;;;;;;;;5043210;28;20131;-55
2021/06/04 11:11:52;;;;;;;7.82;2.50;;;;;;;;;;5041509;28;20051;-55
2021/06/04 11:14:36;;;;;;;6.45;2.83;;;;;;;;;;5042321;28;20091;-53
2021/06/04 11:17:11;;;;;;;7.75;2.70;;;;;;;;;;5042902;28;20136;-53
2021/06/04 11:19:36;;;;;;;6.10;2.47;;;;;;;;;;5045154;28;20889;-56
2021/06/04 11:22:04;;;;;;;6.47;2.45;;;;;;;;;;5052530;28;20778;-55
2021/06/04 11:24:33;;;;;;;8.63;2.40;;;;;;;;;;5052941;28;20041;-55
2021/06/04 11:26:58;;;;;;;8.18;2.45;;;;;;;;;;5054832;28;20040;-56
2021/06/04 11:29:27;;;;;;;7.85;2.55;;;;;;;;;;5055254;28;20393;-55
2021/06/04 11:32:04;;;;;;;6.85;2.60;;;;;;;;;;5056240;28;20097;-56
2021/06/04 11:34:33;;;;;;;6.00;2.25;;;;;;;;;;5054974;28;20049;-57
2021/06/04 11:37:00;;;;;;;8.70;2.33;;;;;;;;;;5058915;28;20064;-57
2021/06/04 11:39:31;;;;;;;5.47;2.53;;;;;;;;;;5055937;28;20059;-57
2021/06/04 11:41:59;;;;;;;6.28;2.50;;;;;;;;;;5057140;28;20100;-57
2021/06/04 11:44:25;;;;;;;5.53;2.08;;;;;;;;;;5056907;28;20041;-56
2021/06/04 11:47:09;;;;;;;4.75;2.13;;;;;;;;;;5057065;28;20033;-57
2021/06/04 11:49:53;;;;;;;9.95;2.60;;;;;;;;;;5049835;28;20128;-54
2021/06/04 11:52:38;;;;;;;9.27;2.60;;;;;;;;;;5046662;28;20037;-57
2021/06/04 11:55:17;;;;;;;12.55;1.83;;;;;;;;;;5045858;28;20041;-57
2021/06/04 11:58:05;;;;;;;7.10;1.98;;;;;;;;;;5045144;28;20056;-53
2021/06/04 12:00:37;;;;;;;7.03;2.15;;;;;;;;;;5045998;28;20033;-54
2021/06/04 12:03:09;;;;;;;5.03;2.10;;;;;;;;;;5046577;28;20076;-51
2021/06/04 12:05:35;;;;;;;8.15;2.03;;;;;;;;;;5043706;28;20094;-56
2021/06/04 12:08:19;;;;;;;7.10;2.00;;;;;;;;;;5046025;28;20431;-56
2021/06/04 12:10:54;;;;;;;4.55;1.60;;;;;;;;;;5036848;28;20115;-56
2021/06/04 12:13:46;;;;;;;5.60;1.80;;;;;;;;;;5042091;28;20045;-55
2021/06/04 12:16:39;;;;;;;8.05;2.30;;;;;;;;;;5025171;28;20067;-53
2021/06/04 12:19:22;;;;;;;5.83;2.03;;;;;;;;;;5043131;28;20616;-55
2021/06/04 12:21:48;;;;;;;14.15;7.60;;;;;;;;;;5044369;28;20047;-60
2021/06/04 12:24:20;;;;;;;8.27;1.65;;;;;;;;;;5044168;28;20037;-60
2021/06/04 12:26:47;;;;;;;3.97;1.50;;;;;;;;;;5042285;28;20167;-61
2021/06/04 12:29:39;;;;;;;11.32;1.70;;;;;;;;;;5044407;28;20281;-61
2021/06/04 12:32:09;;;;;;;5.03;1.73;;;;;;;;;;5039697;28;20052;-61
2021/06/04 12:34:38;;;;;;;6.40;1.35;;;;;;;;;;5044496;28;20059;-59
2021/06/04 12:37:09;;;;;;;4.35;1.30;;;;;;;;;;5045294;28;20044;-60
2021/06/04 12:39:41;;;;;;;6.10;1.52;;;;;;;;;;5043903;28;20045;-60
2021/06/04 12:42:12;;;;;;;5.00;1.60;;;;;;;;;;5044234;28;20043;-61
2021/06/04 12:44:39;;;;;;;9.18;4.03;;;;;;;;;;5043073;28;20037;-58
2021/06/04 12:47:06;;;;;;;6.47;1.80;;;;;;;;;;5044397;28;21865;-55
2021/06/04 12:49:33;;;;;;;9.45;1.80;;;;;;;;;;5043708;28;20109;-56
2021/06/04 12:51:59;;;;;;;7.50;1.45;;;;;;;;;;5045535;28;20061;-55
2021/06/04 12:54:27;;;;;;;8.60;1.40;;;;;;;;;;5041504;28;20044;-54
2021/06/04 12:56:55;;;;;;;4.72;1.88;;;;;;;;;;5043216;28;20174;-59
2021/06/04 12:59:22;;;;;;;8.30;3.10;;;;;;;;;;5044390;28;20040;-58
2021/06/04 13:02:12;;;;;;;7.25;1.42;;;;;;;;;;5045224;28;20919;-60
2021/06/04 13:04:40;;;;;;;7.57;1.50;;;;;;;;;;5043757;28;20059;-60
2021/06/04 13:07:24;;;;;;;7.70;1.40;;;;;;;;;;5043887;28;20152;-60
2021/06/04 13:10:09;;;;;;;7.78;2.88;;;;;;;;;;5040248;28;20048;-60
2021/06/04 13:12:35;;;;;;;4.85;1.40;;;;;;;;;;5044980;28;20076;-60
2021/06/04 13:15:14;;;;;;;4.90;1.40;;;;;;;;;;5043085;28;20044;-54
2021/06/04 13:17:41;;;;;;;11.65;1.58;;;;;;;;;;5043902;28;20052;-55
2021/06/04 13:20:13;;;;;;;7.72;1.50;;;;;;;;;;5043792;28;20091;-56
2021/06/04 13:22:40;;;;;;;6.47;1.30;;;;;;;;;;5042324;28;20029;-57
2021/06/04 13:25:10;;;;;;;6.25;1.50;;;;;;;;;;5043410;28;20130;-57
2021/06/04 13:27:36;;;;;;;5.45;1.83;;;;;;;;;;5042165;28;20044;-57
2021/06/04 13:30:07;;;;;;;7.63;1.35;;;;;;;;;;5041445;28;20056;-56
2021/06/04 13:32:35;;;;;;;4.18;1.13;;;;;;;;;;5040771;28;20126;-61
2021/06/04 13:35:10;;;;;;;5.93;1.70;;;;;;;;;;5047819;28;20048;-61
2021/06/04 13:37:37;;;;;;;5.85;1.65;;;;;;;;;;5042393;28;20044;-57
2021/06/04 13:40:04;;;;;;;6.20;1.90;;;;;;;;;;5043124;28;20033;-59
2021/06/04 13:42:35;;;;;;;5.97;1.35;;;;;;;;;;5042312;28;20462;-59
2021/06/04 13:45:02;;;;;;;5.13;1.40;;;;;;;;;;5041497;28;20126;-59
2021/06/04 13:47:32;;;;;;;11.07;1.70;;;;;;;;;;5042110;28;20352;-59
2021/06/04 13:50:12;;;;;;;5.15;1.42;;;;;;;;;;5042562;28;20037;-59
2021/06/04 13:52:53;;;;;;;4.90;1.42;;;;;;;;;;5042946;28;20348;-59
2021/06/04 13:55:20;;;;;;;6.90;1.50;;;;;;;;;;5042746;28;20048;-59
2021/06/04 13:57:45;;;;;;;4.15;1.63;;;;;;;;;;5040671;28;20098;-60
2021/06/04 14:00:24;;;;;;;8.43;1.50;;;;;;;;;;5042540;28;20041;-59
2021/06/04 14:03:03;;;;;;;12.15;1.80;;;;;;;;;;5041508;28;20151;-59
2021/06/04 14:05:30;;;;;;;10.00;1.70;;;;;;;;;;5040459;28;20098;-59
2021/06/04 14:08:06;;;;;;;9.50;1.75;;;;;;;;;;5040086;28;20094;-60
2021/06/04 14:10:48;;;;;;;10.43;1.35;;;;;;;;;;5040431;28;20500;-59
2021/06/04 14:13:19;;;;;;;4.30;1.20;;;;;;;;;;5042925;28;20048;-56
2021/06/04 14:15:47;;;;;;;6.15;1.27;;;;;;;;;;5041626;28;20029;-54
2021/06/04 14:18:31;;;;;;;10.00;1.33;;;;;;;;;;5043211;28;20079;-56
2021/06/04 14:20:58;;;;;;;3.47;1.20;;;;;;;;;;5041356;28;20040;-52
2021/06/04 14:23:33;;;;;;;7.00;1.20;;;;;;;;;;5042642;28;20440;-55
2021/06/04 14:26:17;;;;;;;4.97;1.13;;;;;;;;;;5042226;28;20049;-54
2021/06/04 14:28:43;;;;;;;9.40;1.40;;;;;;;;;;5041663;28;20055;-54
2021/06/04 14:31:09;;;;;;;10.30;1.60;;;;;;;;;;5042709;28;20025;-56
2021/06/04 14:33:39;;;;;;;5.78;1.10;;;;;;;;;;5041178;28;20029;-54
2021/06/04 14:36:05;;;;;;;7.28;1.30;;;;;;;;;;5041207;28;20112;-56
2021/06/04 14:38:31;;;;;;;7.03;1.17;;;;;;;;;;5043261;28;20048;-56
2021/06/04 14:40:59;;;;;;;5.22;1.00;;;;;;;;;;5043815;28;20806;-56
2021/06/04 14:43:25;;;;;;;4.18;1.20;;;;;;;;;;5042117;28;20072;-54
2021/06/04 14:45:51;;;;;;;7.50;1.92;;;;;;;;;;5043354;28;20049;-56
2021/06/04 14:48:22;;;;;;;6.78;1.17;;;;;;;;;;5043361;28;20037;-57
2021/06/04 14:50:52;;;;;;;6.60;1.30;;;;;;;;;;5045193;28;20698;-55
2021/06/04 14:53:18;;;;;;;4.20;1.10;;;;;;;;;;5042057;28;22114;-56
2021/06/04 14:55:45;;;;;;;9.60;1.30;;;;;;;;;;5036124;28;20036;-54